Time;durP1;ratioP1;P1;durP2;ratioP2;P2;SDS_P1;SDS_P2;PMS_P1;PMS_P2;Temp;Humidity;BMP_temperature;BMP_pressure;BME280_temperature;BME280_humidity;BME280_pressure;Samples;Min_cycle;Max_cycle;Signal;HPM_P1;HPM_P2
2023/03/11 00:00:37;;;;;;;1.05;0.55;;;;;;;1.53;86.51;100772.56;5048696;28;19978;-71
2023/03/11 00:03:04;;;;;;;0.35;0.20;;;;;;;1.52;86.49;100775.13;5054860;28;20037;-71
2023/03/11 00:05:33;;;;;;;0.47;0.30;;;;;;;1.52;86.71;100773.41;5058364;28;20035;-71
2023/03/11 00:07:59;;;;;;;2.97;0.50;;;;;;;1.51;87.14;100776.88;5058060;28;20052;-71
2023/03/11 00:10:31;;;;;;;1.95;0.40;;;;;;;1.50;86.99;100785.47;5057321;28;20040;-71
2023/03/11 00:13:00;;;;;;;2.63;0.55;;;;;;;1.49;87.09;100785.47;5058025;28;20044;-71
2023/03/11 00:15:26;;;;;;;;;;;;;;;1.48;87.03;100794.09;5051480;28;20041;-71
2023/03/11 00:17:51;;;;;;;0.45;0.35;;;;;;;1.48;87.07;100799.25;5052677;28;19924;-71
2023/03/11 00:20:29;;;;;;;0.88;0.45;;;;;;;1.46;86.63;100795.81;5054433;28;20046;-71
2023/03/11 00:22:55;;;;;;;0.90;0.30;;;;;;;1.44;86.85;100802.72;5059325;28;20336;-71
2023/03/11 00:25:22;;;;;;;0.63;0.40;;;;;;;1.44;87.16;100811.31;5057623;28;20041;-71
2023/03/11 00:27:48;;;;;;;0.60;0.30;;;;;;;1.46;87.57;100816.47;5058961;28;20033;-71
2023/03/11 00:30:14;;;;;;;0.90;0.32;;;;;;;1.46;88.09;100816.47;5056780;28;20056;-71
2023/03/11 00:32:40;;;;;;;2.13;0.35;;;;;;;1.47;88.47;100820.75;5056962;28;20099;-71
2023/03/11 00:35:06;;;;;;;0.52;0.25;;;;;;;1.47;88.74;100823.34;5058231;28;20278;-71
2023/03/11 00:37:31;;;;;;;0.88;0.38;;;;;;;1.48;89.06;100828.50;5057787;28;20104;-71
2023/03/11 00:39:58;;;;;;;0.50;0.30;;;;;;;1.48;89.44;100827.66;5056438;28;20044;-71
2023/03/11 00:42:24;;;;;;;1.15;0.32;;;;;;;1.49;89.84;100824.19;5058234;28;20159;-71
2023/03/11 00:44:49;;;;;;;0.20;0.20;;;;;;;1.49;90.04;100819.03;5043998;28;20040;-71
2023/03/11 00:47:14;;;;;;;0.77;0.10;;;;;;;1.48;90.29;100825.91;5057584;28;20041;-71
2023/03/11 00:49:40;;;;;;;1.98;0.73;;;;;;;1.48;90.51;100833.66;5057786;28;20119;-71
2023/03/11 00:52:05;;;;;;;1.08;0.30;;;;;;;1.48;90.88;100828.50;5061661;28;20348;-71
2023/03/11 00:54:31;;;;;;;1.27;0.40;;;;;;;1.47;91.04;100826.75;5062543;28;20047;-71
2023/03/11 00:56:56;;;;;;;0.77;0.40;;;;;;;1.47;91.30;100833.66;5061873;28;20064;-71
2023/03/11 00:59:21;;;;;;;1.70;0.32;;;;;;;1.45;91.48;100831.06;5061597;28;20037;-71
2023/03/11 01:01:47;;;;;;;0.20;0.20;;;;;;;1.44;91.76;100834.53;5062117;28;20029;-71
2023/03/11 01:04:12;;;;;;;1.85;0.30;;;;;;;1.44;92.08;100839.69;5061924;28;20334;-71
2023/03/11 01:06:38;;;;;;;2.72;0.40;;;;;;;1.42;92.33;100836.28;5061131;28;20040;-71
2023/03/11 01:09:04;;;;;;;1.92;0.50;;;;;;;1.42;92.32;100837.97;5060516;28;20149;-71
2023/03/11 01:11:30;;;;;;;0.63;0.40;;;;;;;1.41;92.49;100834.53;5057039;28;20112;-71
2023/03/11 01:13:56;;;;;;;1.00;0.47;;;;;;;1.39;92.81;100838.84;5059392;28;20335;-71
2023/03/11 01:16:21;;;;;;;0.70;0.40;;;;;;;1.38;92.89;100842.28;5060364;28;20060;-71
2023/03/11 01:18:47;;;;;;;1.33;0.40;;;;;;;1.36;93.26;100848.31;5059360;28;20041;-71
2023/03/11 01:21:12;;;;;;;0.20;0.20;;;;;;;1.34;93.41;100845.75;5062057;28;20041;-71
2023/03/11 01:23:39;;;;;;;0.45;0.43;;;;;;;1.33;93.55;100844.03;5061580;28;20298;-71
2023/03/11 01:26:04;;;;;;;1.55;0.20;;;;;;;1.33;93.55;100844.03;5061204;28;20368;-71
2023/03/11 01:28:30;;;;;;;2.03;0.50;;;;;;;1.32;93.61;100843.16;5060677;28;20527;-71
2023/03/11 01:30:55;;;;;;;1.85;0.43;;;;;;;1.31;93.81;100846.63;5061703;28;20288;-71
2023/03/11 01:33:21;;;;;;;0.30;0.30;;;;;;;1.30;94.03;100838.88;5060103;28;20158;-71
2023/03/11 01:35:48;;;;;;;0.40;0.40;;;;;;;1.28;94.16;100845.78;5059839;28;20081;-71
2023/03/11 01:38:14;;;;;;;1.42;0.30;;;;;;;1.26;94.20;100843.19;5060249;28;20651;-71
2023/03/11 01:40:46;;;;;;;0.73;0.40;;;;;;;1.26;94.22;100856.09;5059754;28;20344;-71
2023/03/11 01:43:43;;;;;;;0.40;0.30;;;;;;;1.23;94.42;100855.22;5060843;28;20308;-71
2023/03/11 01:46:19;;;;;;;1.20;0.35;;;;;;;1.23;94.54;100857.81;5060692;28;20045;-71
2023/03/11 01:48:48;;;;;;;0.50;0.43;;;;;;;1.21;94.64;100860.41;5060134;28;20313;-71
2023/03/11 01:51:16;;;;;;;0.20;0.20;;;;;;;1.19;94.75;100861.28;5061787;28;20229;-71
2023/03/11 01:53:42;;;;;;;1.30;0.50;;;;;;;1.17;94.85;100861.28;5059935;28;20025;-71
2023/03/11 01:56:08;;;;;;;2.30;0.75;;;;;;;1.15;94.99;100860.41;5060522;28;20375;-71
2023/03/11 01:58:38;;;;;;;2.25;0.40;;;;;;;1.14;95.01;100869.00;5042685;28;20049;-71
2023/03/11 02:01:04;;;;;;;;;;;;;;;1.12;95.37;100869.00;5041023;28;20041;-71
2023/03/11 02:03:33;;;;;;;1.30;0.38;;;;;;;1.11;95.40;100866.41;5042818;28;19916;-71
2023/03/11 02:06:06;;;;;;;1.35;0.30;;;;;;;1.10;95.44;100864.72;5038889;28;20040;-71
2023/03/11 02:08:33;;;;;;;1.38;0.40;;;;;;;1.08;95.60;100869.03;5044558;28;20025;-71
2023/03/11 02:11:01;;;;;;;0.43;0.43;;;;;;;1.06;95.66;100860.44;5048378;28;20045;-71
2023/03/11 02:13:27;;;;;;;2.75;0.30;;;;;;;1.05;95.80;100869.88;5041838;28;20037;-71
2023/03/11 02:15:53;;;;;;;0.40;0.32;;;;;;;1.02;95.79;100869.88;5040932;28;20340;-71
2023/03/11 02:18:20;;;;;;;2.15;0.40;;;;;;;1.00;95.93;100863.00;5031946;28;20074;-71
2023/03/11 02:21:25;;;;;;;0.40;0.25;;;;;;;0.98;96.04;100873.31;5038179;28;20124;-71
2023/03/11 02:24:01;;;;;;;0.50;0.50;;;;;;;0.97;96.26;100863.03;5040532;28;20045;-71
2023/03/11 02:26:39;;;;;;;0.45;0.22;;;;;;;0.96;96.16;100869.88;5037283;28;20359;-71
2023/03/11 02:29:08;;;;;;;0.90;0.30;;;;;;;0.93;96.37;100867.31;5027012;28;20061;-71
2023/03/11 02:31:37;;;;;;;0.30;0.30;;;;;;;0.92;96.38;100861.28;5022527;28;20116;-71
2023/03/11 02:34:04;;;;;;;2.05;0.30;;;;;;;0.91;96.56;100862.16;5040933;28;20064;-71
2023/03/11 02:36:32;;;;;;;1.00;0.30;;;;;;;0.90;96.73;100854.41;5040845;28;20096;-71
2023/03/11 02:38:58;;;;;;;0.28;0.28;;;;;;;0.89;96.70;100868.16;5039598;28;20056;-71
2023/03/11 02:41:23;;;;;;;0.25;0.22;;;;;;;0.89;96.92;100865.56;5039792;28;20052;-71
2023/03/11 02:43:49;;;;;;;0.30;0.30;;;;;;;0.87;96.87;100870.72;5039359;28;20068;-71
2023/03/11 02:46:16;;;;;;;1.00;0.40;;;;;;;0.87;97.16;100864.72;5038040;28;20068;-71
2023/03/11 02:48:42;;;;;;;0.93;0.32;;;;;;;0.84;97.16;100865.59;5039388;28;20033;-71
2023/03/11 02:51:07;;;;;;;0.77;0.40;;;;;;;0.84;97.04;100867.31;5040042;28;20041;-71
2023/03/11 02:53:40;;;;;;;1.55;0.40;;;;;;;0.82;97.30;100867.31;5038727;28;20105;-71
2023/03/11 02:56:06;;;;;;;1.25;0.60;;;;;;;0.81;97.17;100877.63;5039547;28;20041;-71
2023/03/11 02:58:31;;;;;;;0.68;0.47;;;;;;;0.78;97.31;100875.88;5079618;28;20094;-71
2023/03/11 03:00:57;;;;;;;0.63;0.40;;;;;;;0.79;97.53;100881.94;5079242;28;20071;-71
2023/03/11 03:03:22;;;;;;;0.60;0.40;;;;;;;0.79;97.54;100887.09;5078767;28;20096;-71
2023/03/11 03:05:47;;;;;;;2.25;0.40;;;;;;;0.77;97.51;100887.94;5052927;28;20075;-71
2023/03/11 03:08:13;;;;;;;0.88;0.45;;;;;;;0.75;97.52;100886.22;5041130;28;20255;-71
2023/03/11 03:10:38;;;;;;;0.35;0.35;;;;;;;0.73;97.72;100891.38;5058556;28;20033;-71
2023/03/11 03:13:04;;;;;;;0.20;0.20;;;;;;;0.73;97.71;100895.69;5058764;28;20036;-71
2023/03/11 03:15:29;;;;;;;1.05;0.40;;;;;;;0.71;97.89;100898.25;5058330;28;20048;-71
2023/03/11 03:17:55;;;;;;;1.15;0.40;;;;;;;0.71;97.85;100897.38;5059387;28;20044;-71
2023/03/11 03:20:21;;;;;;;1.10;0.30;;;;;;;0.70;98.07;100898.25;5059240;28;20033;-71
2023/03/11 03:22:47;;;;;;;0.57;0.40;;;;;;;0.70;98.03;100904.25;5059631;28;20096;-71
2023/03/11 03:25:13;;;;;;;0.32;0.32;;;;;;;0.68;97.95;100913.72;5058926;28;20036;-71
2023/03/11 03:27:38;;;;;;;0.40;0.40;;;;;;;0.66;97.96;100905.13;5058524;28;20103;-71
2023/03/11 03:30:05;;;;;;;2.05;0.50;;;;;;;0.64;98.30;100909.41;5059129;28;20099;-71
2023/03/11 03:32:31;;;;;;;0.45;0.40;;;;;;;0.64;98.28;100911.09;5040352;28;20041;-71
2023/03/11 03:34:58;;;;;;;0.95;0.55;;;;;;;0.63;98.44;100919.72;5059032;28;20104;-71
2023/03/11 03:37:27;;;;;;;1.27;0.47;;;;;;;0.62;98.33;100917.97;5057430;28;20036;-71
2023/03/11 03:39:53;;;;;;;0.50;0.45;;;;;;;0.61;98.49;100924.00;5058107;28;20116;-71
2023/03/11 03:42:19;;;;;;;0.45;0.45;;;;;;;0.59;98.61;100924.00;5058105;28;20044;-72
2023/03/11 03:44:45;;;;;;;1.35;0.63;;;;;;;0.57;98.61;100921.41;5057236;28;20043;-73
2023/03/11 03:47:10;;;;;;;0.30;0.30;;;;;;;0.55;98.76;100932.59;5057466;28;20060;-73
2023/03/11 03:49:36;;;;;;;0.40;0.40;;;;;;;0.55;98.66;100938.59;5056096;28;20228;-73
2023/03/11 03:52:04;;;;;;;3.40;0.60;;;;;;;0.53;98.65;100942.91;5057760;28;20040;-73
2023/03/11 03:54:29;;;;;;;0.50;0.50;;;;;;;0.51;98.43;100942.03;5056585;28;20076;-73
2023/03/11 03:56:55;;;;;;;0.40;0.38;;;;;;;0.50;98.75;100944.59;5055278;28;20068;-73
2023/03/11 03:59:20;;;;;;;1.27;0.50;;;;;;;0.50;98.93;100940.31;5056998;28;20037;-73
2023/03/11 04:01:46;;;;;;;0.50;0.40;;;;;;;0.47;98.88;100940.28;5057342;28;20275;-73
2023/03/11 04:04:11;;;;;;;1.75;0.95;;;;;;;0.46;98.87;100945.47;5057477;28;20033;-73
2023/03/11 04:06:36;;;;;;;0.95;0.40;;;;;;;0.46;99.10;100940.31;5056589;28;20052;-73
2023/03/11 04:09:02;;;;;;;0.47;0.32;;;;;;;0.45;99.02;100936.84;5056753;28;20049;-73
2023/03/11 04:11:27;;;;;;;0.65;0.63;;;;;;;0.43;98.94;100938.56;5056391;28;20047;-73
2023/03/11 04:13:53;;;;;;;3.00;0.60;;;;;;;0.43;98.94;100930.84;5057173;28;20067;-73
2023/03/11 04:16:21;;;;;;;0.40;0.40;;;;;;;0.42;99.05;100931.72;5056439;28;20049;-73
2023/03/11 04:18:47;;;;;;;0.55;0.50;;;;;;;0.41;99.09;100929.97;5057244;28;20251;-73
2023/03/11 04:21:13;;;;;;;0.70;0.50;;;;;;;0.40;99.05;100932.53;5057220;28;20037;-73
2023/03/11 04:23:39;;;;;;;0.95;0.50;;;;;;;0.38;99.28;100941.16;5056496;28;20094;-73
2023/03/11 04:26:04;;;;;;;1.33;0.50;;;;;;;0.37;99.36;100938.56;5041134;28;20399;-73
2023/03/11 04:28:29;;;;;;;0.52;0.52;;;;;;;0.36;99.32;100932.56;5060228;28;20048;-73
2023/03/11 04:30:55;;;;;;;0.75;0.50;;;;;;;0.35;99.47;100933.41;5043177;28;20044;-73
2023/03/11 04:33:20;;;;;;;0.85;0.73;;;;;;;0.35;99.37;100938.56;5060581;28;20052;-73
2023/03/11 04:35:46;;;;;;;0.68;0.40;;;;;;;0.34;99.43;100943.69;5060928;28;20037;-73
2023/03/11 04:38:12;;;;;;;2.65;0.85;;;;;;;0.32;99.34;100942.84;5061440;28;20243;-73
2023/03/11 04:40:37;;;;;;;1.70;0.60;;;;;;;0.31;99.64;100952.28;5060206;28;20305;-73
2023/03/11 04:43:03;;;;;;;2.17;0.82;;;;;;;0.31;99.70;100961.72;5060237;28;20549;-73
2023/03/11 04:45:29;;;;;;;0.50;0.40;;;;;;;0.29;99.64;100954.00;5059160;28;20328;-73
2023/03/11 04:47:54;;;;;;;1.52;0.40;;;;;;;0.28;99.67;100961.72;5059451;28;20256;-73
2023/03/11 04:50:20;;;;;;;0.65;0.45;;;;;;;0.26;99.91;100960.88;5059085;28;20132;-73
2023/03/11 04:52:46;;;;;;;0.80;0.60;;;;;;;0.26;99.61;100953.13;5060257;28;20096;-73
2023/03/11 04:55:12;;;;;;;0.98;0.55;;;;;;;0.25;99.65;100959.13;5059680;28;20037;-73
2023/03/11 04:57:42;;;;;;;2.00;0.52;;;;;;;0.25;99.74;100956.56;5059578;28;20064;-73
2023/03/11 05:00:10;;;;;;;1.30;0.47;;;;;;;0.22;99.74;100956.53;5056411;28;20041;-73
2023/03/11 05:02:36;;;;;;;2.03;0.63;;;;;;;0.23;99.79;100953.97;5035119;28;20033;-73
2023/03/11 05:05:02;;;;;;;0.50;0.50;;;;;;;0.21;99.99;100962.56;5034340;28;20037;-73
2023/03/11 05:07:27;;;;;;;3.33;0.88;;;;;;;0.19;99.87;100965.97;5039791;28;20109;-73
2023/03/11 05:09:53;;;;;;;1.23;0.60;;;;;;;0.18;99.88;100972.00;5039772;28;20092;-73
2023/03/11 05:12:18;;;;;;;0.70;0.70;;;;;;;0.17;99.99;100970.25;5039998;28;20152;-73
2023/03/11 05:14:43;;;;;;;0.60;0.60;;;;;;;0.16;100.00;100971.13;5039740;28;20367;-73
2023/03/11 05:17:11;;;;;;;0.60;0.57;;;;;;;0.15;100.00;100971.97;5039901;28;20049;-73
2023/03/11 05:19:36;;;;;;;0.73;0.60;;;;;;;0.14;100.00;100975.38;5039485;28;20037;-73
2023/03/11 05:22:04;;;;;;;0.88;0.77;;;;;;;0.15;100.00;100973.69;5039875;28;20037;-73
2023/03/11 05:24:30;;;;;;;3.50;0.73;;;;;;;0.12;100.00;100982.25;5039190;28;20037;-73
2023/03/11 05:26:56;;;;;;;1.27;0.65;;;;;;;0.12;100.00;100977.09;5039940;28;20383;-73
2023/03/11 05:29:22;;;;;;;0.90;0.50;;;;;;;0.10;100.00;100971.09;5038997;28;20030;-73
2023/03/11 05:31:47;;;;;;;1.42;0.60;;;;;;;0.09;100.00;100984.84;5039591;28;20357;-73
2023/03/11 05:34:13;;;;;;;0.63;0.57;;;;;;;0.08;100.00;100979.66;5039421;28;20036;-73
2023/03/11 05:36:39;;;;;;;1.83;0.70;;;;;;;0.07;100.00;100977.94;5038684;28;20045;-73
2023/03/11 05:39:04;;;;;;;0.65;0.60;;;;;;;0.05;100.00;100983.06;5039204;28;20025;-73
2023/03/11 05:41:30;;;;;;;0.50;0.50;;;;;;;0.05;100.00;100984.78;5038935;28;20056;-73
2023/03/11 05:43:55;;;;;;;0.77;0.52;;;;;;;0.05;100.00;100992.53;5039443;28;20084;-73
2023/03/11 05:46:20;;;;;;;0.73;0.50;;;;;;;0.03;100.00;100986.50;5038878;28;20253;-73
2023/03/11 05:48:46;;;;;;;0.50;0.50;;;;;;;0.02;100.00;100989.91;5039431;28;20045;-73
2023/03/11 05:51:12;;;;;;;0.43;0.43;;;;;;;0.00;100.00;100992.50;5039263;28;20048;-73
2023/03/11 05:53:37;;;;;;;0.70;0.65;;;;;;;-0.03;100.00;100995.91;5038724;28;20540;-73
2023/03/11 05:56:03;;;;;;;0.65;0.63;;;;;;;-0.03;100.00;101007.94;5039250;28;20037;-73
2023/03/11 05:58:30;;;;;;;2.92;0.93;;;;;;;-0.04;100.00;101003.63;5054323;28;20057;-73
2023/03/11 06:00:58;;;;;;;1.33;0.90;;;;;;;-0.06;100.00;101006.19;5059426;28;20044;-73
2023/03/11 06:03:23;;;;;;;0.80;0.80;;;;;;;-0.06;100.00;100997.63;5058617;28;20032;-73
2023/03/11 06:05:49;;;;;;;1.05;0.63;;;;;;;-0.07;100.00;101006.22;5059357;28;20344;-73
2023/03/11 06:08:16;;;;;;;0.82;0.73;;;;;;;-0.08;100.00;101017.34;5058277;28;20375;-73
2023/03/11 06:10:42;;;;;;;0.85;0.70;;;;;;;-0.09;100.00;101016.50;5058830;28;20047;-73
2023/03/11 06:13:08;;;;;;;1.67;0.60;;;;;;;-0.10;100.00;101013.91;5059064;28;20347;-73
2023/03/11 06:15:35;;;;;;;1.55;0.70;;;;;;;-0.10;100.00;101024.19;5058505;28;20391;-73
2023/03/11 06:18:01;;;;;;;1.35;0.80;;;;;;;-0.12;100.00;101019.03;5059152;28;20254;-73
2023/03/11 06:20:26;;;;;;;0.88;0.70;;;;;;;-0.12;100.00;101025.91;5058601;28;20105;-73
2023/03/11 06:22:52;;;;;;;0.95;0.57;;;;;;;-0.13;100.00;101026.75;5059371;28;20045;-73
2023/03/11 06:25:17;;;;;;;1.92;0.80;;;;;;;-0.14;100.00;101033.63;5058216;28;20057;-73
2023/03/11 06:27:43;;;;;;;1.20;0.82;;;;;;;-0.14;100.00;101037.91;5058486;28;20104;-73
2023/03/11 06:30:09;;;;;;;0.90;0.70;;;;;;;-0.15;100.00;101031.03;5058298;28;20067;-73
2023/03/11 06:32:36;;;;;;;1.52;0.70;;;;;;;-0.16;100.00;101037.91;5058010;28;20073;-73
2023/03/11 06:35:04;;;;;;;2.63;0.90;;;;;;;-0.16;100.00;101043.06;5058135;28;20043;-73
2023/03/11 06:37:30;;;;;;;1.50;0.93;;;;;;;-0.17;100.00;101045.59;5058254;28;20033;-73
2023/03/11 06:39:55;;;;;;;1.77;0.85;;;;;;;-0.17;100.00;101045.59;5058247;28;20067;-73
2023/03/11 06:42:24;;;;;;;1.58;0.75;;;;;;;-0.17;100.00;101050.75;5058177;28;20032;-73
2023/03/11 06:44:49;;;;;;;1.50;1.00;;;;;;;-0.18;100.00;101059.31;5058497;28;20049;-73
2023/03/11 06:47:15;;;;;;;1.30;1.15;;;;;;;-0.20;100.00;101064.44;5057918;28;20083;-73
2023/03/11 06:49:41;;;;;;;0.80;0.80;;;;;;;-0.21;100.00;101058.44;5057151;28;20053;-73
2023/03/11 06:52:08;;;;;;;2.72;0.90;;;;;;;-0.20;100.00;101061.88;5058269;28;20067;-73
2023/03/11 06:54:34;;;;;;;2.30;0.80;;;;;;;-0.21;100.00;101062.75;5057377;28;20071;-73
2023/03/11 06:56:59;;;;;;;2.05;0.90;;;;;;;-0.21;100.00;101062.75;5058479;28;20032;-73
2023/03/11 06:59:27;;;;;;;0.88;0.82;;;;;;;-0.22;100.00;101068.72;5057554;28;20056;-73
2023/03/11 07:01:52;;;;;;;0.90;0.90;;;;;;;-0.22;100.00;101069.63;5046792;28;20061;-73
2023/03/11 07:04:18;;;;;;;1.08;0.90;;;;;;;-0.21;100.00;101071.31;5035194;28;20056;-73
2023/03/11 07:06:43;;;;;;;2.03;1.38;;;;;;;-0.22;100.00;101064.47;5031772;28;20037;-73
2023/03/11 07:09:09;;;;;;;1.00;1.00;;;;;;;-0.21;100.00;101075.63;5008492;28;20045;-73
2023/03/11 07:11:34;;;;;;;1.00;0.95;;;;;;;-0.21;100.00;101075.63;5029150;28;20045;-73
2023/03/11 07:13:59;;;;;;;1.38;1.10;;;;;;;-0.20;100.00;101078.22;5037818;28;20045;-73
2023/03/11 07:16:27;;;;;;;2.90;1.35;;;;;;;-0.18;100.00;101079.91;5037279;28;20052;-73
2023/03/11 07:18:59;;;;;;;2.43;1.03;;;;;;;-0.17;100.00;101091.94;5037839;28;20218;-73
2023/03/11 07:21:26;;;;;;;1.30;1.20;;;;;;;-0.16;100.00;101091.06;5034131;28;20037;-73
2023/03/11 07:23:56;;;;;;;6.05;1.60;;;;;;;-0.16;100.00;101089.38;5037265;28;20037;-73
2023/03/11 07:26:22;;;;;;;2.95;1.20;;;;;;;-0.15;100.00;101091.09;5036912;28;20033;-73
2023/03/11 07:28:51;;;;;;;2.28;1.40;;;;;;;-0.14;100.00;101087.69;5037394;28;20100;-73
2023/03/11 07:31:25;;;;;;;1.33;1.20;;;;;;;-0.13;100.00;101093.69;5037444;28;20341;-73
2023/03/11 07:33:52;;;;;;;2.03;1.42;;;;;;;-0.12;100.00;101088.56;5037569;28;20548;-73
2023/03/11 07:36:20;;;;;;;1.50;1.40;;;;;;;-0.11;100.00;101092.88;5036970;28;20236;-73
2023/03/11 07:38:46;;;;;;;3.15;1.80;;;;;;;-0.09;100.00;101093.72;5037155;28;20083;-73
2023/03/11 07:41:13;;;;;;;1.75;1.35;;;;;;;-0.07;100.00;101102.31;5038093;28;20049;-73
2023/03/11 07:43:39;;;;;;;1.85;1.70;;;;;;;-0.05;100.00;101108.34;5036978;28;20036;-73
2023/03/11 07:46:10;;;;;;;3.42;1.50;;;;;;;-0.03;100.00;101101.50;5037938;28;20041;-73
2023/03/11 07:48:37;;;;;;;1.88;1.65;;;;;;;0.02;100.00;101123.81;5036935;28;20041;-73
2023/03/11 07:51:09;;;;;;;1.83;1.60;;;;;;;0.04;100.00;101116.97;5037763;28;20044;-73
2023/03/11 07:53:35;;;;;;;2.42;1.70;;;;;;;0.06;100.00;101112.72;5037093;28;20033;-73
2023/03/11 07:56:01;;;;;;;4.75;1.77;;;;;;;0.08;100.00;101114.44;5037950;28;20186;-73
2023/03/11 07:58:27;;;;;;;2.78;2.00;;;;;;;0.11;100.00;101121.31;5043944;28;20404;-73
2023/03/11 08:00:54;;;;;;;2.75;1.77;;;;;;;0.14;100.00;101123.91;5060507;28;20102;-73
2023/03/11 08:03:19;;;;;;;2.25;2.05;;;;;;;0.15;100.00;101126.50;5041100;28;20044;-73
2023/03/11 08:05:45;;;;;;;2.03;1.85;;;;;;;0.19;100.00;101127.41;5051904;28;20040;-73
2023/03/11 08:08:10;;;;;;;3.08;1.92;;;;;;;0.22;100.00;101134.28;5058842;28;20049;-73
2023/03/11 08:10:36;;;;;;;2.00;1.73;;;;;;;0.24;100.00;101125.72;5060267;28;20056;-73
2023/03/11 08:13:02;;;;;;;2.10;1.90;;;;;;;0.27;100.00;101135.16;5058700;28;20064;-73
2023/03/11 08:15:27;;;;;;;5.35;2.33;;;;;;;0.30;100.00;101135.19;5060037;28;20344;-73
2023/03/11 08:17:53;;;;;;;4.15;1.90;;;;;;;0.32;100.00;101142.06;5058512;28;20044;-73
2023/03/11 08:20:18;;;;;;;3.75;2.20;;;;;;;0.36;100.00;101145.53;5060442;28;20039;-73
2023/03/11 08:22:44;;;;;;;3.78;2.60;;;;;;;0.40;100.00;101148.97;5060547;28;20348;-73
2023/03/11 08:25:09;;;;;;;3.67;2.50;;;;;;;0.43;100.00;101156.75;5057210;28;20063;-73
2023/03/11 08:27:34;;;;;;;3.40;1.98;;;;;;;0.47;100.00;101155.91;5057656;28;20526;-73
2023/03/11 08:30:00;;;;;;;3.33;2.60;;;;;;;0.49;100.00;101152.50;5060495;28;20324;-73
2023/03/11 08:32:25;;;;;;;2.72;2.40;;;;;;;0.53;100.00;101149.06;5059845;28;20056;-73
2023/03/11 08:34:51;;;;;;;2.38;2.17;;;;;;;0.57;100.00;101147.38;5041923;28;20167;-73
2023/03/11 08:37:16;;;;;;;2.95;2.08;;;;;;;0.61;100.00;101150.84;5059753;28;20083;-73
2023/03/11 08:39:41;;;;;;;2.20;2.00;;;;;;;0.64;100.00;101149.13;5059897;28;20047;-73
2023/03/11 08:42:07;;;;;;;3.00;1.98;;;;;;;0.68;100.00;101157.75;5060357;28;20042;-73
2023/03/11 08:44:32;;;;;;;2.17;1.98;;;;;;;0.71;100.00;101160.31;5058168;28;20037;-73
2023/03/11 08:46:58;;;;;;;2.88;2.22;;;;;;;0.74;100.00;101165.50;5058384;28;20067;-73
2023/03/11 08:49:23;;;;;;;7.72;2.17;;;;;;;0.76;100.00;101168.94;5059303;28;20037;-73
2023/03/11 08:51:48;;;;;;;7.82;2.00;;;;;;;0.75;100.00;101170.66;5059414;28;20037;-73
2023/03/11 08:54:14;;;;;;;9.45;1.58;;;;;;;0.70;100.00;101169.78;5059596;28;20029;-73
2023/03/11 08:56:39;;;;;;;7.57;1.48;;;;;;;0.68;94.11;101168.06;5057254;28;20060;-73
2023/03/11 08:59:06;;;;;;;2.85;1.20;;;;;;;0.75;95.11;101165.50;5053119;28;20037;-73
2023/03/11 09:01:31;;;;;;;1.23;1.10;;;;;;;0.84;97.01;101169.00;5047569;28;20075;-73
2023/03/11 09:03:57;;;;;;;2.67;1.65;;;;;;;0.88;96.94;101170.75;5048832;28;20279;-73
2023/03/11 09:06:23;;;;;;;2.15;1.23;;;;;;;0.91;96.96;101176.78;5031298;28;20037;-73
2023/03/11 09:08:48;;;;;;;5.07;0.85;;;;;;;0.98;96.98;101179.38;5049683;28;20041;-73
2023/03/11 09:11:15;;;;;;;1.20;0.65;;;;;;;0.99;95.64;101179.38;5029770;28;20064;-73
2023/03/11 09:13:42;;;;;;;1.10;0.77;;;;;;;1.04;95.74;101174.25;5041658;28;20043;-73
2023/03/11 09:16:25;;;;;;;1.25;0.60;;;;;;;1.07;95.32;101177.66;5036264;28;20371;-73
2023/03/11 09:18:51;;;;;;;10.48;1.10;;;;;;;1.10;94.71;101182.84;5040039;28;20087;-73
2023/03/11 09:21:16;;;;;;;6.28;0.93;;;;;;;1.11;91.99;101183.72;5041889;28;20041;-73
2023/03/11 09:23:42;;;;;;;1.60;0.70;;;;;;;1.17;92.89;101177.72;5034781;28;20059;-73
2023/03/11 09:26:07;;;;;;;3.08;0.82;;;;;;;1.18;92.63;101182.88;5033774;28;20040;-73
2023/03/11 09:28:33;;;;;;;0.77;0.65;;;;;;;1.20;92.89;101188.94;5033060;28;20037;-73
2023/03/11 09:30:58;;;;;;;1.00;0.70;;;;;;;1.24;92.80;101182.91;5036508;28;20072;-73
2023/03/11 09:33:23;;;;;;;1.70;0.65;;;;;;;1.25;90.64;101192.38;5037879;28;20048;-73
2023/03/11 09:35:49;;;;;;;1.15;0.50;;;;;;;1.26;88.57;101182.94;5038385;28;20036;-73
2023/03/11 09:38:14;;;;;;;0.95;0.47;;;;;;;1.33;89.69;101193.25;5042566;28;20070;-73
2023/03/11 09:40:51;;;;;;;0.77;0.50;;;;;;;1.38;90.26;101192.41;5037934;28;20057;-73
2023/03/11 09:43:50;;;;;;;1.35;0.30;;;;;;;1.43;90.52;101190.69;5039400;28;20336;-73
2023/03/11 09:46:27;;;;;;;1.52;0.50;;;;;;;1.44;86.30;101180.38;5037549;28;20026;-73
2023/03/11 09:49:17;;;;;;;5.10;0.90;;;;;;;1.47;83.42;101180.38;5037899;28;20029;-73
2023/03/11 09:51:52;;;;;;;6.43;1.05;;;;;;;1.51;80.99;101189.00;5036706;28;20037;-73
2023/03/11 09:54:18;;;;;;;1.80;0.60;;;;;;;1.56;82.12;101189.00;5037363;28;20044;-73
2023/03/11 09:56:43;;;;;;;5.35;0.88;;;;;;;1.59;81.05;101199.34;5037561;28;20107;-73
2023/03/11 09:59:31;;;;;;;5.75;0.63;;;;;;;1.62;80.46;101202.81;5050360;28;20112;-73
2023/03/11 10:01:58;;;;;;;2.13;0.63;;;;;;;1.66;81.13;101199.38;5058248;28;20048;-73
2023/03/11 10:04:30;;;;;;;1.42;0.38;;;;;;;1.69;81.80;101204.53;5057985;28;20328;-73
2023/03/11 10:06:58;;;;;;;1.50;0.38;;;;;;;1.72;81.38;101201.09;5058172;28;20041;-73
2023/03/11 10:09:36;;;;;;;3.58;0.60;;;;;;;1.74;79.70;101191.63;5056338;28;20033;-73
2023/03/11 10:12:26;;;;;;;2.92;0.60;;;;;;;1.76;77.96;101199.38;5055297;28;20289;-73
2023/03/11 10:15:22;;;;;;;2.53;0.40;;;;;;;1.81;76.93;101198.53;5056114;28;20032;-73
2023/03/11 10:18:04;;;;;;;1.80;0.60;;;;;;;1.86;78.78;101195.97;5055622;28;20355;-73
2023/03/11 10:21:01;;;;;;;2.45;0.50;;;;;;;1.90;79.33;101197.66;5056714;28;20063;-73
2023/03/11 10:23:54;;;;;;;7.43;1.05;;;;;;;1.94;79.34;101188.22;5046595;28;20115;-73
2023/03/11 10:26:37;;;;;;;5.15;0.80;;;;;;;1.95;76.95;101189.91;5056826;28;20087;-73
2023/03/11 10:29:15;;;;;;;2.75;0.65;;;;;;;1.99;78.46;101189.06;5055375;28;20074;-73
2023/03/11 10:32:06;;;;;;;3.88;0.50;;;;;;;2.02;80.24;101192.53;5051926;28;20036;-73
2023/03/11 10:34:55;;;;;;;3.55;0.60;;;;;;;2.05;76.59;101191.66;5050373;28;20560;-73
2023/03/11 10:37:28;;;;;;;5.50;0.77;;;;;;;2.08;77.17;101196.81;5054835;28;20033;-73
2023/03/11 10:39:57;;;;;;;4.68;0.77;;;;;;;2.10;77.89;101203.69;5050755;28;20108;-73
2023/03/11 10:42:27;;;;;;;5.78;0.60;;;;;;;2.14;76.57;101203.72;5053481;28;20082;-73
2023/03/11 10:44:52;;;;;;;3.65;0.82;;;;;;;2.14;77.81;101204.56;5055525;28;20040;-73
2023/03/11 10:47:21;;;;;;;4.57;0.88;;;;;;;2.15;78.62;101206.31;5055894;28;20029;-73
2023/03/11 10:49:47;;;;;;;;;;;;;;;2.17;78.40;101208.88;5056780;28;20058;-73
2023/03/11 10:52:13;;;;;;;1.42;0.47;;;;;;;2.18;78.98;101211.44;5054306;28;19951;-73
2023/03/11 10:54:44;;;;;;;1.45;0.63;;;;;;;2.19;79.67;101220.09;5055296;28;20094;-73
2023/03/11 10:57:25;;;;;;;3.03;0.73;;;;;;;2.21;77.85;101218.34;5055468;28;20026;-73
2023/03/11 10:59:53;;;;;;;5.43;0.70;;;;;;;2.21;76.74;101219.22;5054465;28;20296;-73
2023/03/11 11:02:21;;;;;;;0.40;0.32;;;;;;;2.23;74.83;101220.06;5053445;28;20108;-73
2023/03/11 11:04:48;;;;;;;1.38;0.52;;;;;;;2.27;76.74;101215.75;5055544;28;20071;-73
2023/03/11 11:07:33;;;;;;;3.42;0.70;;;;;;;2.31;78.25;101214.91;5055379;28;20033;-73
2023/03/11 11:10:11;;;;;;;5.28;0.55;;;;;;;2.36;76.70;101220.91;5054643;28;20043;-73
2023/03/11 11:12:50;;;;;;;1.30;0.60;;;;;;;2.41;76.79;101218.34;5055364;28;20115;-73
2023/03/11 11:15:22;;;;;;;;;;;;;;;2.45;79.07;101220.91;5053386;28;20108;-73
2023/03/11 11:17:48;;;;;;;1.48;0.63;;;;;;;2.47;79.78;101221.78;5051680;28;19972;-73
2023/03/11 11:20:18;;;;;;;3.90;0.60;;;;;;;2.49;80.14;101225.22;5053684;28;20041;-73
2023/03/11 11:23:02;;;;;;;1.50;0.65;;;;;;;2.50;77.84;101219.19;5055826;28;20248;-73
2023/03/11 11:25:37;;;;;;;3.75;0.70;;;;;;;2.54;76.23;101216.59;5053609;28;20040;-73
2023/03/11 11:28:22;;;;;;;3.67;1.52;;;;;;;2.57;75.98;101221.78;5056197;28;20047;-73
2023/03/11 11:30:56;;;;;;;7.28;1.10;;;;;;;2.64;77.21;101223.50;5055883;28;20053;-73
2023/03/11 11:33:37;;;;;;;5.00;1.30;;;;;;;2.66;76.59;101214.00;5052171;28;20556;-73